Time;durP1;ratioP1;P1;durP2;ratioP2;P2;SDS_P1;SDS_P2;PMS_P1;PMS_P2;Temp;Humidity;BMP_temperature;BMP_pressure;BME280_temperature;BME280_humidity;BME280_pressure;Samples;Min_cycle;Max_cycle;Signal;HPM_P1;HPM_P2
2023/03/08 00:01:16;;;;;;;4.75;2.00;;;;;;;;;;4995235;28;20117;-76
2023/03/08 00:03:42;;;;;;;3.38;2.05;;;;;;;;;;4996161;28;20042;-76
2023/03/08 00:06:10;;;;;;;2.67;1.80;;;;;;;;;;4996846;28;20112;-76
2023/03/08 00:08:36;;;;;;;2.17;1.45;;;;;;;;;;4999817;28;20485;-76
2023/03/08 00:11:09;;;;;;;0.90;0.85;;;;;;;;;;5000228;28;20045;-76
2023/03/08 00:13:35;;;;;;;1.80;1.00;;;;;;;;;;4996703;28;20082;-76
2023/03/08 00:16:01;;;;;;;1.27;1.00;;;;;;;;;;4995213;28;20053;-76
2023/03/08 00:18:27;;;;;;;2.30;1.13;;;;;;;;;;4996503;28;20145;-76
2023/03/08 00:21:00;;;;;;;1.40;1.00;;;;;;;;;;4995746;28;20038;-76
2023/03/08 00:23:26;;;;;;;1.05;1.02;;;;;;;;;;4995731;28;20039;-76
2023/03/08 00:25:53;;;;;;;1.92;1.20;;;;;;;;;;4996286;28;20386;-76
2023/03/08 00:28:19;;;;;;;1.95;1.13;;;;;;;;;;5027484;28;20050;-76
2023/03/08 00:30:45;;;;;;;2.17;1.10;;;;;;;;;;4996135;28;20047;-76
2023/03/08 00:33:11;;;;;;;1.80;1.13;;;;;;;;;;4995845;28;20065;-76
2023/03/08 00:35:37;;;;;;;1.60;1.10;;;;;;;;;;4995495;28;20050;-76
2023/03/08 00:38:03;;;;;;;1.98;1.23;;;;;;;;;;4994063;28;20053;-76
2023/03/08 00:40:29;;;;;;;2.95;1.50;;;;;;;;;;4994920;28;20039;-76
2023/03/08 00:42:55;;;;;;;2.90;1.52;;;;;;;;;;4995955;28;20054;-76
2023/03/08 00:45:21;;;;;;;3.13;1.33;;;;;;;;;;4995554;28;20053;-76
2023/03/08 00:47:47;;;;;;;2.53;1.23;;;;;;;;;;4994626;28;20401;-76
2023/03/08 00:50:13;;;;;;;4.50;1.20;;;;;;;;;;4988484;28;20046;-76
2023/03/08 00:52:39;;;;;;;4.20;1.10;;;;;;;;;;4996438;28;20046;-76
2023/03/08 00:55:05;;;;;;;2.78;1.40;;;;;;;;;;4997596;28;20077;-76
2023/03/08 00:57:32;;;;;;;3.20;1.48;;;;;;;;;;4993259;28;20057;-76
2023/03/08 00:59:58;;;;;;;2.63;1.35;;;;;;;;;;4976636;28;20082;-76
2023/03/08 01:02:24;;;;;;;6.90;1.50;;;;;;;;;;4992866;28;20053;-76
2023/03/08 01:04:50;;;;;;;1.77;1.17;;;;;;;;;;4995513;28;20038;-76
2023/03/08 01:07:17;;;;;;;1.65;1.08;;;;;;;;;;4978997;28;20494;-77
2023/03/08 01:09:43;;;;;;;2.65;1.20;;;;;;;;;;4976951;28;20054;-77
2023/03/08 01:12:09;;;;;;;2.25;1.23;;;;;;;;;;4995491;28;20049;-77
2023/03/08 01:14:35;;;;;;;1.95;1.20;;;;;;;;;;4994137;28;20101;-77
2023/03/08 01:17:01;;;;;;;1.65;1.55;;;;;;;;;;4994726;28;20043;-76
2023/03/08 01:19:27;;;;;;;3.67;1.33;;;;;;;;;;4994999;28;20054;-76
2023/03/08 01:21:53;;;;;;;2.90;1.42;;;;;;;;;;4995112;28;20050;-76
2023/03/08 01:24:22;;;;;;;3.72;1.25;;;;;;;;;;4993606;28;20061;-76
2023/03/08 01:26:48;;;;;;;3.83;1.30;;;;;;;;;;4994163;28;20048;-77
2023/03/08 01:29:14;;;;;;;2.85;1.40;;;;;;;;;;4993025;28;20165;-76
2023/03/08 01:31:40;;;;;;;1.77;1.15;;;;;;;;;;4994513;28;20107;-77
2023/03/08 01:34:06;;;;;;;4.43;1.55;;;;;;;;;;4993845;28;20044;-77
2023/03/08 01:36:32;;;;;;;3.03;1.30;;;;;;;;;;4994218;28;20129;-76
2023/03/08 01:39:00;;;;;;;4.22;1.50;;;;;;;;;;4989889;28;20130;-76
2023/03/08 01:41:28;;;;;;;2.25;1.40;;;;;;;;;;4994468;28;20054;-76
2023/03/08 01:43:54;;;;;;;6.13;1.90;;;;;;;;;;4995053;28;20385;-76
2023/03/08 01:46:26;;;;;;;2.78;1.35;;;;;;;;;;4994285;28;20061;-76
2023/03/08 01:48:55;;;;;;;2.63;1.50;;;;;;;;;;4994496;28;20502;-76
2023/03/08 01:51:26;;;;;;;4.13;1.42;;;;;;;;;;4994327;28;20046;-77
2023/03/08 01:53:53;;;;;;;3.72;1.42;;;;;;;;;;4994683;28;20057;-77
2023/03/08 01:56:20;;;;;;;2.47;1.35;;;;;;;;;;4987519;28;20054;-76
2023/03/08 01:58:47;;;;;;;3.25;1.27;;;;;;;;;;4981504;28;20050;-77
2023/03/08 02:01:13;;;;;;;2.00;1.42;;;;;;;;;;4989506;28;20048;-76
2023/03/08 02:03:39;;;;;;;3.97;1.35;;;;;;;;;;4992993;28;20084;-77
2023/03/08 02:06:06;;;;;;;3.15;2.35;;;;;;;;;;4994566;28;20070;-77
2023/03/08 02:08:32;;;;;;;1.48;1.20;;;;;;;;;;4994252;28;20527;-76
2023/03/08 02:10:59;;;;;;;3.25;1.30;;;;;;;;;;4993420;28;20042;-76
2023/03/08 02:13:25;;;;;;;1.45;1.20;;;;;;;;;;4993384;28;20046;-76
2023/03/08 02:15:53;;;;;;;3.63;1.45;;;;;;;;;;4993466;28;20039;-76
2023/03/08 02:18:19;;;;;;;3.15;1.30;;;;;;;;;;4993414;28;20394;-76
2023/03/08 02:20:45;;;;;;;3.33;1.50;;;;;;;;;;4993915;28;20481;-78
2023/03/08 02:23:13;;;;;;;1.60;1.08;;;;;;;;;;4993973;28;20061;-76
2023/03/08 02:25:39;;;;;;;2.90;1.38;;;;;;;;;;4992044;28;20045;-76
2023/03/08 02:28:06;;;;;;;2.13;1.20;;;;;;;;;;5000088;28;20041;-76
2023/03/08 02:30:33;;;;;;;3.22;1.10;;;;;;;;;;4999930;28;20081;-76
2023/03/08 02:32:59;;;;;;;2.45;1.50;;;;;;;;;;4999089;28;20093;-76
2023/03/08 02:35:25;;;;;;;3.80;1.50;;;;;;;;;;5000545;28;20046;-76
2023/03/08 02:37:51;;;;;;;1.40;1.02;;;;;;;;;;4999660;28;20525;-76
2023/03/08 02:40:18;;;;;;;3.00;1.30;;;;;;;;;;4999664;28;20054;-76
2023/03/08 02:42:44;;;;;;;3.30;1.67;;;;;;;;;;5000242;28;20071;-76
2023/03/08 02:45:10;;;;;;;3.38;1.17;;;;;;;;;;5000383;28;20053;-76
2023/03/08 02:47:36;;;;;;;1.98;0.98;;;;;;;;;;4999655;28;20046;-76
2023/03/08 02:50:02;;;;;;;2.65;1.20;;;;;;;;;;5000167;28;20065;-76
2023/03/08 02:52:28;;;;;;;1.13;1.10;;;;;;;;;;4999508;28;20145;-76
2023/03/08 02:54:54;;;;;;;1.88;1.15;;;;;;;;;;4995980;28;20494;-76
2023/03/08 02:57:21;;;;;;;1.10;1.10;;;;;;;;;;4992657;28;20070;-76
2023/03/08 02:59:47;;;;;;;2.42;1.15;;;;;;;;;;4999640;28;20104;-76
2023/03/08 03:02:13;;;;;;;2.58;1.10;;;;;;;;;;4999972;28;20136;-76
2023/03/08 03:04:39;;;;;;;1.73;1.10;;;;;;;;;;4999124;28;20061;-76
2023/03/08 03:07:05;;;;;;;2.05;1.10;;;;;;;;;;4999225;28;20046;-76
2023/03/08 03:09:31;;;;;;;1.00;1.00;;;;;;;;;;5004419;28;20046;-76
2023/03/08 03:11:57;;;;;;;1.83;1.15;;;;;;;;;;5004533;28;20053;-76
2023/03/08 03:14:23;;;;;;;1.20;0.98;;;;;;;;;;5000098;28;20046;-76
2023/03/08 03:16:49;;;;;;;0.90;0.90;;;;;;;;;;5000482;28;20053;-76
2023/03/08 03:19:15;;;;;;;1.10;1.00;;;;;;;;;;4998258;28;20054;-76
2023/03/08 03:21:41;;;;;;;2.90;1.13;;;;;;;;;;4991707;28;20485;-76
2023/03/08 03:24:07;;;;;;;2.33;1.27;;;;;;;;;;5030267;28;20042;-76
2023/03/08 03:26:33;;;;;;;1.02;0.98;;;;;;;;;;4990820;28;20377;-76
2023/03/08 03:28:59;;;;;;;1.10;1.00;;;;;;;;;;4984061;28;20521;-76
2023/03/08 03:31:26;;;;;;;1.13;1.05;;;;;;;;;;5000006;28;20070;-76
2023/03/08 03:33:52;;;;;;;1.40;0.93;;;;;;;;;;4999414;28;20082;-75
2023/03/08 03:36:19;;;;;;;1.13;1.02;;;;;;;;;;4998978;28;20038;-76
2023/03/08 03:38:49;;;;;;;0.95;0.95;;;;;;;;;;4995524;28;20117;-76
2023/03/08 03:41:16;;;;;;;1.80;1.20;;;;;;;;;;4996724;28;20134;-76
2023/03/08 03:43:42;;;;;;;1.52;1.15;;;;;;;;;;4996323;28;20057;-75
2023/03/08 03:46:10;;;;;;;2.42;1.05;;;;;;;;;;4996300;28;20045;-76
2023/03/08 03:48:36;;;;;;;1.35;1.25;;;;;;;;;;4996309;28;20066;-76
2023/03/08 03:51:04;;;;;;;1.65;1.00;;;;;;;;;;4996167;28;20042;-76
2023/03/08 03:53:31;;;;;;;1.17;1.10;;;;;;;;;;4996669;28;20053;-76
2023/03/08 03:56:08;;;;;;;1.60;1.00;;;;;;;;;;4991280;28;20035;-75
2023/03/08 03:58:34;;;;;;;1.70;1.20;;;;;;;;;;4987875;28;20068;-76
2023/03/08 04:01:00;;;;;;;1.55;1.20;;;;;;;;;;4990729;28;20042;-79
2023/03/08 04:03:26;;;;;;;1.90;1.25;;;;;;;;;;4991889;28;20481;-76
2023/03/08 04:05:53;;;;;;;1.63;1.42;;;;;;;;;;4987785;28;20405;-76
2023/03/08 04:08:19;;;;;;;1.90;1.20;;;;;;;;;;4996107;28;20393;-76
2023/03/08 04:10:45;;;;;;;1.77;1.10;;;;;;;;;;4995863;28;20043;-75
2023/03/08 04:13:11;;;;;;;4.18;1.17;;;;;;;;;;4996094;28;20425;-76
2023/03/08 04:15:37;;;;;;;1.33;1.23;;;;;;;;;;4994387;28;20061;-76
2023/03/08 04:18:03;;;;;;;1.50;1.40;;;;;;;;;;4996250;28;20082;-75
2023/03/08 04:20:29;;;;;;;1.55;1.17;;;;;;;;;;4995483;28;20050;-76
2023/03/08 04:22:55;;;;;;;1.80;1.15;;;;;;;;;;4996436;28;20078;-76
2023/03/08 04:25:21;;;;;;;1.10;1.10;;;;;;;;;;4994889;28;20042;-76
2023/03/08 04:27:47;;;;;;;2.85;1.50;;;;;;;;;;4983025;28;20081;-76
2023/03/08 04:30:14;;;;;;;4.28;1.85;;;;;;;;;;4995031;28;20082;-76
2023/03/08 04:32:40;;;;;;;1.98;1.67;;;;;;;;;;4995799;28;20481;-76
2023/03/08 04:35:06;;;;;;;1.30;1.20;;;;;;;;;;4995319;28;20049;-76
2023/03/08 04:37:32;;;;;;;1.40;1.30;;;;;;;;;;4995514;28;20054;-75
2023/03/08 04:39:58;;;;;;;1.95;1.50;;;;;;;;;;4995239;28;20050;-76
2023/03/08 04:42:24;;;;;;;2.08;1.30;;;;;;;;;;4995568;28;20522;-76
2023/03/08 04:44:50;;;;;;;2.42;1.50;;;;;;;;;;4994036;28;20046;-76
2023/03/08 04:47:16;;;;;;;2.28;1.27;;;;;;;;;;4993261;28;20049;-76
2023/03/08 04:49:42;;;;;;;2.97;1.38;;;;;;;;;;4993302;28;20464;-76
2023/03/08 04:52:08;;;;;;;1.63;1.30;;;;;;;;;;4994286;28;20046;-76
2023/03/08 04:54:34;;;;;;;1.40;1.30;;;;;;;;;;4995109;28;20485;-76
2023/03/08 04:57:01;;;;;;;1.30;1.20;;;;;;;;;;4993258;28;20074;-76
2023/03/08 04:59:27;;;;;;;2.83;1.40;;;;;;;;;;4995270;28;20046;-76
2023/03/08 05:01:53;;;;;;;2.60;1.27;;;;;;;;;;4995104;28;20386;-76
2023/03/08 05:04:19;;;;;;;2.33;1.30;;;;;;;;;;4995190;28;21073;-76
2023/03/08 05:06:45;;;;;;;1.55;1.40;;;;;;;;;;4995004;28;20122;-76
2023/03/08 05:09:11;;;;;;;2.30;1.50;;;;;;;;;;4989196;28;20190;-76
2023/03/08 05:11:37;;;;;;;2.05;1.73;;;;;;;;;;4986894;28;20189;-76
2023/03/08 05:14:03;;;;;;;2.22;1.70;;;;;;;;;;4995013;28;20046;-75
2023/03/08 05:16:29;;;;;;;1.67;1.50;;;;;;;;;;4994171;28;20046;-76
2023/03/08 05:18:55;;;;;;;1.70;1.60;;;;;;;;;;4994572;28;20422;-76
2023/03/08 05:21:23;;;;;;;1.80;1.70;;;;;;;;;;5016482;28;20101;-76
2023/03/08 05:23:49;;;;;;;2.55;1.60;;;;;;;;;;4980703;28;20046;-76
2023/03/08 05:26:16;;;;;;;2.45;1.60;;;;;;;;;;4994957;28;20113;-76
2023/03/08 05:28:42;;;;;;;1.95;1.20;;;;;;;;;;4994333;28;20057;-76
2023/03/08 05:31:12;;;;;;;1.52;1.30;;;;;;;;;;4994297;28;20050;-76
2023/03/08 05:33:38;;;;;;;1.88;1.65;;;;;;;;;;4994382;28;20042;-75
2023/03/08 05:36:05;;;;;;;3.17;1.50;;;;;;;;;;4994603;28;20078;-76
2023/03/08 05:38:35;;;;;;;3.97;1.80;;;;;;;;;;4993251;28;20113;-76
2023/03/08 05:41:01;;;;;;;1.40;1.23;;;;;;;;;;4988229;28;20490;-78
2023/03/08 05:43:27;;;;;;;4.32;2.33;;;;;;;;;;4985336;28;20389;-76
2023/03/08 05:45:56;;;;;;;1.65;1.50;;;;;;;;;;4977264;28;20050;-76
2023/03/08 05:48:23;;;;;;;3.10;1.70;;;;;;;;;;4994690;28;20046;-76
2023/03/08 05:50:49;;;;;;;5.18;1.60;;;;;;;;;;4994078;28;20042;-75
2023/03/08 05:53:15;;;;;;;4.25;1.42;;;;;;;;;;4994018;28;20046;-76
2023/03/08 05:55:41;;;;;;;4.50;1.75;;;;;;;;;;4993149;28;20133;-76
2023/03/08 05:58:07;;;;;;;3.78;1.40;;;;;;;;;;5025750;28;20039;-78
2023/03/08 06:00:33;;;;;;;5.38;2.85;;;;;;;;;;4992368;28;20113;-75
2023/03/08 06:03:02;;;;;;;4.80;3.20;;;;;;;;;;4993852;28;20381;-75
2023/03/08 06:05:28;;;;;;;5.57;3.63;;;;;;;;;;4977505;28;20050;-75
2023/03/08 06:07:54;;;;;;;5.53;2.30;;;;;;;;;;4994927;28;20078;-76
2023/03/08 06:10:23;;;;;;;2.47;1.70;;;;;;;;;;4994228;28;20124;-75
2023/03/08 06:12:50;;;;;;;3.53;1.85;;;;;;;;;;4997663;28;20121;-76
2023/03/08 06:15:16;;;;;;;2.58;2.00;;;;;;;;;;4996476;28;20050;-75
2023/03/08 06:17:42;;;;;;;3.08;2.00;;;;;;;;;;5010624;28;20129;-75
2023/03/08 06:20:08;;;;;;;5.15;2.15;;;;;;;;;;4994179;28;20054;-76
2023/03/08 06:22:34;;;;;;;5.53;2.38;;;;;;;;;;5009429;28;20497;-76
2023/03/08 06:25:01;;;;;;;4.47;2.83;;;;;;;;;;4995514;28;20054;-76
2023/03/08 06:27:27;;;;;;;2.97;1.85;;;;;;;;;;4992704;28;20045;-76
2023/03/08 06:29:54;;;;;;;3.53;2.03;;;;;;;;;;4993609;28;20058;-77
2023/03/08 06:32:20;;;;;;;2.88;1.90;;;;;;;;;;4993425;28;20092;-76
2023/03/08 06:34:46;;;;;;;4.68;1.92;;;;;;;;;;4976314;28;20056;-75
2023/03/08 06:37:13;;;;;;;3.10;1.70;;;;;;;;;;4993988;28;20062;-76
2023/03/08 06:39:39;;;;;;;3.40;2.00;;;;;;;;;;4991839;28;20401;-76
2023/03/08 06:42:06;;;;;;;2.58;2.00;;;;;;;;;;4993040;28;20496;-75
2023/03/08 06:44:32;;;;;;;2.40;1.77;;;;;;;;;;4993887;28;20050;-76
2023/03/08 06:46:58;;;;;;;3.15;2.30;;;;;;;;;;4993124;28;20101;-76
2023/03/08 06:49:24;;;;;;;5.60;2.28;;;;;;;;;;4992448;28;20050;-76
2023/03/08 06:51:50;;;;;;;5.10;2.17;;;;;;;;;;4990515;28;20084;-75
2023/03/08 06:54:17;;;;;;;3.50;2.28;;;;;;;;;;4987788;28;20053;-76
2023/03/08 06:56:46;;;;;;;5.22;2.70;;;;;;;;;;4992501;28;20057;-75
2023/03/08 06:59:13;;;;;;;3.88;3.13;;;;;;;;;;4990911;28;20050;-76
2023/03/08 07:01:40;;;;;;;5.25;3.13;;;;;;;;;;4992346;28;20074;-75
2023/03/08 07:04:09;;;;;;;4.43;3.15;;;;;;;;;;4993556;28;20038;-77
2023/03/08 07:06:35;;;;;;;6.95;3.22;;;;;;;;;;4993768;28;20081;-75
2023/03/08 07:09:01;;;;;;;5.30;3.00;;;;;;;;;;4993147;28;20042;-75
2023/03/08 07:11:29;;;;;;;2.55;2.35;;;;;;;;;;4993073;28;20054;-76
2023/03/08 07:13:57;;;;;;;4.88;2.85;;;;;;;;;;4992541;28;20046;-75
2023/03/08 07:16:23;;;;;;;3.25;2.95;;;;;;;;;;4993343;28;20050;-76
2023/03/08 07:18:49;;;;;;;5.60;3.42;;;;;;;;;;4996862;28;20050;-76
2023/03/08 07:21:15;;;;;;;7.10;2.92;;;;;;;;;;4996534;28;20148;-76
2023/03/08 07:23:41;;;;;;;6.80;3.05;;;;;;;;;;4996223;28;20068;-76
2023/03/08 07:26:07;;;;;;;3.75;3.00;;;;;;;;;;4996948;28;20049;-76
2023/03/08 07:28:33;;;;;;;3.63;2.90;;;;;;;;;;4992039;28;20113;-76
2023/03/08 07:30:59;;;;;;;5.03;3.10;;;;;;;;;;4996774;28;20121;-75
2023/03/08 07:33:25;;;;;;;5.45;3.28;;;;;;;;;;4997025;28;20065;-76
2023/03/08 07:35:52;;;;;;;4.97;3.45;;;;;;;;;;4996583;28;20042;-76
2023/03/08 07:38:18;;;;;;;5.22;3.20;;;;;;;;;;4995525;28;20076;-76
2023/03/08 07:40:44;;;;;;;7.13;3.75;;;;;;;;;;4995431;28;20039;-77
2023/03/08 07:43:10;;;;;;;6.85;3.55;;;;;;;;;;4978433;28;20371;-76
2023/03/08 07:45:40;;;;;;;4.53;3.45;;;;;;;;;;4996056;28;20054;-76
2023/03/08 07:48:06;;;;;;;4.68;3.60;;;;;;;;;;4996084;28;20057;-78
2023/03/08 07:50:32;;;;;;;4.57;3.70;;;;;;;;;;4996955;28;20063;-76
2023/03/08 07:52:59;;;;;;;5.68;4.40;;;;;;;;;;4982124;28;20054;-75
2023/03/08 07:55:26;;;;;;;8.48;4.93;;;;;;;;;;4993850;28;20062;-76
2023/03/08 07:57:52;;;;;;;7.05;4.15;;;;;;;;;;4991742;28;20493;-76
2023/03/08 08:00:19;;;;;;;5.57;3.60;;;;;;;;;;4994048;28;20466;-76
2023/03/08 08:02:45;;;;;;;6.68;3.53;;;;;;;;;;4993115;28;20053;-76
2023/03/08 08:05:12;;;;;;;5.80;3.33;;;;;;;;;;4993930;28;20117;-76
2023/03/08 08:07:38;;;;;;;4.57;3.25;;;;;;;;;;5024591;28;20085;-77
2023/03/08 08:10:04;;;;;;;5.13;2.78;;;;;;;;;;4992562;28;20046;-76
2023/03/08 08:12:30;;;;;;;3.90;2.67;;;;;;;;;;4992039;28;20371;-77
2023/03/08 08:14:58;;;;;;;5.32;2.30;;;;;;;;;;5007331;28;20062;-76
2023/03/08 08:17:25;;;;;;;4.45;2.50;;;;;;;;;;4990578;28;20049;-76
2023/03/08 08:19:51;;;;;;;4.03;2.50;;;;;;;;;;4991771;28;20073;-76
2023/03/08 08:22:17;;;;;;;7.20;2.50;;;;;;;;;;4993131;28;20046;-76
2023/03/08 08:24:43;;;;;;;6.50;2.50;;;;;;;;;;4993189;28;20050;-77
2023/03/08 08:27:09;;;;;;;4.18;2.35;;;;;;;;;;4992601;28;20405;-76
2023/03/08 08:29:36;;;;;;;5.07;2.30;;;;;;;;;;4991507;28;20120;-76
2023/03/08 08:32:03;;;;;;;3.70;2.03;;;;;;;;;;4974538;28;20050;-77
2023/03/08 08:34:29;;;;;;;2.28;2.08;;;;;;;;;;5020241;28;20060;-76
2023/03/08 08:36:55;;;;;;;2.60;1.98;;;;;;;;;;4992034;28;20481;-76
2023/03/08 08:39:21;;;;;;;3.30;2.15;;;;;;;;;;4993509;28;20042;-76
2023/03/08 08:41:48;;;;;;;6.82;2.30;;;;;;;;;;4994792;28;20046;-76
2023/03/08 08:44:14;;;;;;;2.78;2.10;;;;;;;;;;4996417;28;20393;-75
2023/03/08 08:46:40;;;;;;;4.75;2.40;;;;;;;;;;4995668;28;20046;-75
2023/03/08 08:49:06;;;;;;;6.88;2.30;;;;;;;;;;4992307;28;20428;-76
2023/03/08 08:51:33;;;;;;;4.03;2.10;;;;;;;;;;4991705;28;20296;-76
2023/03/08 08:53:59;;;;;;;3.72;2.05;;;;;;;;;;4994649;28;20449;-78
2023/03/08 08:56:29;;;;;;;3.80;2.95;;;;;;;;;;4995135;28;20046;-76
2023/03/08 08:59:02;;;;;;;4.18;2.60;;;;;;;;;;5000026;28;20046;-76
2023/03/08 09:01:30;;;;;;;6.80;3.13;;;;;;;;;;4976379;28;20043;-76
2023/03/08 09:03:59;;;;;;;5.88;2.90;;;;;;;;;;4988288;28;20046;-76
2023/03/08 09:06:26;;;;;;;6.97;3.28;;;;;;;;;;4984241;28;20041;-76
2023/03/08 09:08:56;;;;;;;5.97;3.03;;;;;;;;;;4991112;28;20057;-76
2023/03/08 09:11:23;;;;;;;6.60;3.15;;;;;;;;;;4982362;28;20046;-75
2023/03/08 09:13:49;;;;;;;5.13;2.60;;;;;;;;;;5000349;28;20049;-75
2023/03/08 09:16:18;;;;;;;4.30;2.67;;;;;;;;;;4995612;28;20104;-75
2023/03/08 09:18:44;;;;;;;3.58;2.20;;;;;;;;;;4992828;28;20065;-75
2023/03/08 09:21:10;;;;;;;5.35;2.80;;;;;;;;;;4995094;28;20038;-76
2023/03/08 09:23:36;;;;;;;5.00;3.17;;;;;;;;;;4993853;28;20047;-77
2023/03/08 09:26:04;;;;;;;2.90;2.28;;;;;;;;;;4994780;28;20173;-76
2023/03/08 09:28:31;;;;;;;5.35;2.45;;;;;;;;;;4994438;28;20050;-76
2023/03/08 09:30:57;;;;;;;3.10;1.90;;;;;;;;;;4996583;28;20061;-76
2023/03/08 09:33:23;;;;;;;3.90;1.98;;;;;;;;;;5012293;28;20054;-76
2023/03/08 09:35:59;;;;;;;2.38;1.70;;;;;;;;;;4998597;28;20038;-75
2023/03/08 09:38:25;;;;;;;;;;;;;;;;;;4995064;28;20050;-75
2023/03/08 09:41:08;;;;;;;3.67;1.70;;;;;;;;;;4994354;28;19986;-75
2023/03/08 09:43:43;;;;;;;2.85;1.83;;;;;;;;;;4980807;28;20542;-76
2023/03/08 09:46:12;;;;;;;2.92;1.90;;;;;;;;;;4993252;28;20038;-77
2023/03/08 09:48:38;;;;;;;3.00;2.10;;;;;;;;;;4992332;28;20046;-77
2023/03/08 09:51:10;;;;;;;2.72;2.00;;;;;;;;;;4992617;28;20034;-76
2023/03/08 09:53:39;;;;;;;3.55;1.80;;;;;;;;;;4994334;28;20078;-76
2023/03/08 09:56:11;;;;;;;4.53;2.42;;;;;;;;;;4994595;28;20068;-76
2023/03/08 09:58:41;;;;;;;3.53;2.40;;;;;;;;;;4994197;28;20042;-76
2023/03/08 10:01:19;;;;;;;4.60;1.90;;;;;;;;;;4994183;28;20046;-76
2023/03/08 10:03:45;;;;;;;3.80;2.15;;;;;;;;;;4994167;28;20165;-76
2023/03/08 10:06:32;;;;;;;2.90;2.22;;;;;;;;;;4994875;28;20079;-76
2023/03/08 10:08:58;;;;;;;5.35;1.80;;;;;;;;;;4986445;28;20057;-76
2023/03/08 10:11:30;;;;;;;3.75;1.70;;;;;;;;;;4974684;28;20057;-76
2023/03/08 10:13:58;;;;;;;3.83;1.63;;;;;;;;;;4983736;28;20046;-76
2023/03/08 10:16:39;;;;;;;3.28;1.42;;;;;;;;;;4994213;28;20401;-76
2023/03/08 10:19:14;;;;;;;4.03;1.83;;;;;;;;;;4994069;28;20450;-76
2023/03/08 10:21:42;;;;;;;3.95;1.60;;;;;;;;;;4993909;28;20117;-76
2023/03/08 10:24:25;;;;;;;3.55;1.70;;;;;;;;;;4993770;28;20043;-76
2023/03/08 10:26:52;;;;;;;4.47;1.70;;;;;;;;;;4974319;28;20405;-76
2023/03/08 10:29:18;;;;;;;5.22;1.90;;;;;;;;;;4975538;28;20138;-76
2023/03/08 10:31:45;;;;;;;3.65;1.23;;;;;;;;;;4994116;28;20057;-76
2023/03/08 10:34:11;;;;;;;4.00;1.90;;;;;;;;;;4994776;28;20054;-76
2023/03/08 10:36:57;;;;;;;4.43;1.75;;;;;;;;;;4994856;28;20038;-77
2023/03/08 10:39:23;;;;;;;1.98;1.60;;;;;;;;;;4994826;28;20061;-77
2023/03/08 10:41:53;;;;;;;5.20;1.75;;;;;;;;;;5000944;28;20046;-80
2023/03/08 10:44:35;;;;;;;4.05;1.67;;;;;;;;;;4999232;28;20097;-79
2023/03/08 10:47:03;;;;;;;4.45;1.70;;;;;;;;;;5001127;28;20046;-79
2023/03/08 10:49:29;;;;;;;1.70;1.50;;;;;;;;;;5000018;28;20144;-78
2023/03/08 10:52:00;;;;;;;4.38;1.63;;;;;;;;;;4983597;28;20437;-79
2023/03/08 10:54:27;;;;;;;3.78;1.83;;;;;;;;;;4978942;28;20046;-78
2023/03/08 10:56:58;;;;;;;3.15;1.67;;;;;;;;;;4978573;28;20050;-77
2023/03/08 10:59:31;;;;;;;4.45;1.70;;;;;;;;;;4986609;28;20082;-77
2023/03/08 11:01:58;;;;;;;8.93;2.13;;;;;;;;;;4998809;28;20046;-77
2023/03/08 11:04:25;;;;;;;3.50;1.50;;;;;;;;;;4997397;28;20122;-77
2023/03/08 11:06:51;;;;;;;4.55;1.58;;;;;;;;;;4997519;28;20042;-77
2023/03/08 11:09:20;;;;;;;2.42;1.48;;;;;;;;;;4997773;28;20547;-77
2023/03/08 11:11:46;;;;;;;1.92;1.50;;;;;;;;;;4997982;28;20101;-78
2023/03/08 11:14:13;;;;;;;3.85;1.60;;;;;;;;;;4999349;28;20053;-78
2023/03/08 11:16:50;;;;;;;2.83;1.40;;;;;;;;;;4997677;28;20489;-78
2023/03/08 11:19:27;;;;;;;2.97;1.60;;;;;;;;;;4996912;28;20046;-79
2023/03/08 11:22:06;;;;;;;2.70;1.70;;;;;;;;;;4978076;28;20464;-78
2023/03/08 11:24:34;;;;;;;4.55;1.70;;;;;;;;;;4993707;28;20042;-78
2023/03/08 11:27:00;;;;;;;2.92;1.67;;;;;;;;;;4997523;28;20041;-79
2023/03/08 11:29:47;;;;;;;4.07;1.67;;;;;;;;;;4997037;28;20046;-78
2023/03/08 11:32:29;;;;;;;2.03;1.40;;;;;;;;;;4982668;28;20054;-78
2023/03/08 11:35:04;;;;;;;3.90;1.98;;;;;;;;;;4996611;28;20401;-78
2023/03/08 11:37:49;;;;;;;3.78;1.67;;;;;;;;;;4998801;28;20538;-77
2023/03/08 11:40:26;;;;;;;3.20;1.38;;;;;;;;;;5005817;28;20042;-78
2023/03/08 11:42:58;;;;;;;2.17;1.23;;;;;;;;;;4996916;28;20051;-79
2023/03/08 11:45:33;;;;;;;3.08;1.80;;;;;;;;;;4982382;28;20047;-79
2023/03/08 11:48:18;;;;;;;3.22;1.50;;;;;;;;;;4988596;28;20050;-79
2023/03/08 11:51:02;;;;;;;2.83;1.55;;;;;;;;;;4984761;28;20393;-79
2023/03/08 11:53:28;;;;;;;4.82;1.55;;;;;;;;;;4998966;28;20046;-79
2023/03/08 11:56:00;;;;;;;2.78;1.50;;;;;;;;;;5008169;28;20054;-80
2023/03/08 11:58:50;;;;;;;2.40;1.50;;;;;;;;;;4988060;28;20049;-80
2023/03/08 12:01:19;;;;;;;3.08;1.55;;;;;;;;;;5010601;28;20050;-79
2023/03/08 12:03:57;;;;;;;1.80;1.40;;;;;;;;;;5004856;28;20054;-79
2023/03/08 12:06:29;;;;;;;3.80;1.40;;;;;;;;;;4988270;28;20065;-79
2023/03/08 12:09:06;;;;;;;2.42;1.50;;;;;;;;;;5000104;28;20046;-78
2023/03/08 12:11:35;;;;;;;2.28;1.40;;;;;;;;;;4996647;28;20061;-78
2023/03/08 12:14:16;;;;;;;4.47;1.50;;;;;;;;;;4995989;28;20096;-78
2023/03/08 12:16:48;;;;;;;3.78;1.50;;;;;;;;;;4999524;28;20063;-78
2023/03/08 12:19:29;;;;;;;3.22;1.70;;;;;;;;;;5002413;28;20086;-79
2023/03/08 12:22:04;;;;;;;3.90;2.00;;;;;;;;;;4998735;28;20097;-78
2023/03/08 12:24:30;;;;;;;2.72;1.60;;;;;;;;;;4996327;28;20035;-78
2023/03/08 12:26:59;;;;;;;2.83;1.40;;;;;;;;;;4996149;28;20053;-78
2023/03/08 12:29:45;;;;;;;3.28;1.85;;;;;;;;;;4996290;28;20038;-79
2023/03/08 12:32:12;;;;;;;3.20;1.85;;;;;;;;;;4997769;28;20081;-80
2023/03/08 12:34:40;;;;;;;5.35;2.92;;;;;;;;;;4997336;28;20571;-80
2023/03/08 12:37:19;;;;;;;2.45;1.33;;;;;;;;;;5005338;28;20516;-79
2023/03/08 12:39:55;;;;;;;3.15;1.60;;;;;;;;;;4992848;28;20102;-80
2023/03/08 12:42:28;;;;;;;5.15;2.78;;;;;;;;;;4998327;28;20050;-81
2023/03/08 12:45:04;;;;;;;2.50;1.50;;;;;;;;;;5004264;28;20077;-79
2023/03/08 12:47:30;;;;;;;3.22;1.50;;;;;;;;;;5001995;28;20046;-79
2023/03/08 12:49:56;;;;;;;4.22;1.73;;;;;;;;;;4996202;28;20046;-79
2023/03/08 12:52:35;;;;;;;3.08;1.58;;;;;;;;;;4995883;28;20046;-78
2023/03/08 12:55:08;;;;;;;4.53;1.67;;;;;;;;;;4999981;28;20042;-79
2023/03/08 12:57:51;;;;;;;3.47;1.17;;;;;;;;;;4997978;28;20050;-79
2023/03/08 13:00:26;;;;;;;3.65;1.20;;;;;;;;;;4999599;28;20062;-79
2023/03/08 13:03:22;;;;;;;4.15;1.50;;;;;;;;;;5000240;28;20054;-77
2023/03/08 13:05:49;;;;;;;1.98;1.20;;;;;;;;;;4993496;28;20417;-80
2023/03/08 13:08:15;;;;;;;2.83;1.38;;;;;;;;;;5002103;28;20054;-79
2023/03/08 13:10:50;;;;;;;2.00;1.30;;;;;;;;;;5001557;28;20049;-79
2023/03/08 13:13:20;;;;;;;4.18;1.50;;;;;;;;;;5003680;28;20176;-78
2023/03/08 13:15:46;;;;;;;2.47;1.40;;;;;;;;;;5002951;28;20034;-79
2023/03/08 13:18:15;;;;;;;3.30;1.02;;;;;;;;;;4995721;28;20122;-78
2023/03/08 13:20:41;;;;;;;3.13;1.67;;;;;;;;;;4995188;28;20057;-78
2023/03/08 13:23:19;;;;;;;2.75;1.55;;;;;;;;;;4995560;28;20361;-78
2023/03/08 13:26:00;;;;;;;2.08;1.20;;;;;;;;;;4987240;28;20100;-77
2023/03/08 13:28:31;;;;;;;2.00;1.25;;;;;;;;;;4975873;28;20108;-78
2023/03/08 13:31:00;;;;;;;2.85;1.60;;;;;;;;;;4975751;28;20054;-78
2023/03/08 13:33:30;;;;;;;1.90;1.67;;;;;;;;;;4977405;28;20054;-78
2023/03/08 13:35:58;;;;;;;3.17;1.50;;;;;;;;;;4994946;28;20038;-78
2023/03/08 13:38:25;;;;;;;2.25;1.33;;;;;;;;;;4995726;28;20054;-78
2023/03/08 13:40:51;;;;;;;3.72;1.80;;;;;;;;;;4994336;28;20053;-78
2023/03/08 13:43:20;;;;;;;1.85;1.38;;;;;;;;;;4995379;28;20046;-79
2023/03/08 13:45:47;;;;;;;3.17;1.48;;;;;;;;;;4994954;28;20049;-78
2023/03/08 13:48:14;;;;;;;2.47;1.30;;;;;;;;;;4993113;28;20038;-77
2023/03/08 13:50:44;;;;;;;3.55;1.45;;;;;;;;;;4994334;28;20047;-78
2023/03/08 13:53:14;;;;;;;4.10;1.40;;;;;;;;;;4993942;28;20057;-77
2023/03/08 13:55:45;;;;;;;1.98;1.50;;;;;;;;;;4992984;28;20042;-77
2023/03/08 13:58:30;;;;;;;3.25;1.55;;;;;;;;;;4993950;28;20038;-77
2023/03/08 14:01:00;;;;;;;4.13;2.00;;;;;;;;;;4993091;28;20121;-78
2023/03/08 14:03:27;;;;;;;3.13;1.70;;;;;;;;;;4992885;28;20056;-77
2023/03/08 14:05:53;;;;;;;3.28;1.50;;;;;;;;;;4993077;28;20054;-78
2023/03/08 14:08:23;;;;;;;2.78;2.00;;;;;;;;;;4993739;28;20058;-78
2023/03/08 14:10:51;;;;;;;3.35;1.50;;;;;;;;;;4992257;28;20061;-77
2023/03/08 14:13:23;;;;;;;4.75;1.70;;;;;;;;;;4984019;28;20089;-78
2023/03/08 14:15:51;;;;;;;3.22;1.40;;;;;;;;;;4993241;28;20098;-78
2023/03/08 14:18:32;;;;;;;5.93;1.75;;;;;;;;;;4994258;28;20044;-77
2023/03/08 14:21:06;;;;;;;3.38;1.40;;;;;;;;;;4993130;28;20060;-78
2023/03/08 14:23:42;;;;;;;6.93;1.70;;;;;;;;;;4991620;28;20045;-78
2023/03/08 14:26:08;;;;;;;;;;;;;;;;;;4994113;28;20516;-77
2023/03/08 14:28:39;;;;;;;5.90;1.60;;;;;;;;;;4993923;28;19926;-78
2023/03/08 14:31:22;;;;;;;3.88;1.58;;;;;;;;;;4987620;28;20478;-78
2023/03/08 14:34:08;;;;;;;3.28;1.60;;;;;;;;;;4992973;28;20129;-78
2023/03/08 14:36:35;;;;;;;4.07;1.60;;;;;;;;;;4994010;28;20146;-80
2023/03/08 14:39:01;;;;;;;5.25;1.80;;;;;;;;;;4978325;28;20177;-80
2023/03/08 14:41:35;;;;;;;5.15;1.60;;;;;;;;;;4988304;28;20490;-80
2023/03/08 14:44:01;;;;;;;2.78;1.58;;;;;;;;;;4993127;28;20085;-78
2023/03/08 14:46:28;;;;;;;2.25;1.40;;;;;;;;;;4994223;28;20047;-79
2023/03/08 14:49:01;;;;;;;2.65;1.42;;;;;;;;;;4998152;28;20089;-79
2023/03/08 14:51:29;;;;;;;3.55;1.73;;;;;;;;;;4994900;28;20046;-78